Terminal Aerodrome Forecast
Issued by NWS Memphis, TN

Home | Current Version | Previous Version | Text Only | Print | Product List | Glossary On
Versions: 1 2 3 4 5 6 7 8 9 10 11 12 13 14 15 16 17 18 19 20 21 22 23 24 25 26
000
FTUS44 KMEG 210259 AAB
TAFMEM
TAF AMD
KMEM 210259Z 2103/2124 09005KT P6SM BKN040
     FM210600 08005KT P6SM OVC030
     FM210800 08005KT P6SM OVC020
      TEMPO 2108/2112 -RA
     FM211200 13007KT P6SM OVC020
      TEMPO 2112/2116 -RA=

USA.gov is the U.S. government's official web portal to all federal, state and local government web resources and services.